Time;durP1;ratioP1;P1;durP2;ratioP2;P2;SDS_P1;SDS_P2;PMS_P1;PMS_P2;Temp;Humidity;BMP_temperature;BMP_pressure;BME280_temperature;BME280_humidity;BME280_pressure;Samples;Min_cycle;Max_cycle;Signal;HPM_P1;HPM_P2
2022/10/02 00:02:54;;;;;;;;;;;18.90;50.10;;;;;;8329695;28;19921;-45
2022/10/02 00:06:57;;;;;;;;;;;18.90;50.20;;;;;;8330462;28;19917;-44
2022/10/02 00:11:03;;;;;;;;;;;18.90;50.20;;;;;;8330124;28;20255;-45
2022/10/02 00:15:13;;;;;;;;;;;18.90;50.20;;;;;;8329916;28;20369;-45
2022/10/02 00:19:15;;;;;;;;;;;18.90;50.20;;;;;;8330417;28;20393;-44
2022/10/02 00:23:34;;;;;;;;;;;18.90;50.30;;;;;;8329902;28;19997;-44
2022/10/02 00:27:39;;;;;;;;;;;18.90;50.30;;;;;;8329466;28;20432;-45
2022/10/02 00:31:47;;;;;;;;;;;18.90;50.30;;;;;;8335898;28;20051;-45
2022/10/02 00:35:59;;;;;;;;;;;18.90;50.30;;;;;;8335956;28;19925;-44
2022/10/02 00:40:18;;;;;;;;;;;18.90;50.30;;;;;;8336251;28;20289;-44
2022/10/02 00:44:38;;;;;;;;;;;18.90;50.30;;;;;;8336283;28;20047;-45
2022/10/02 00:48:57;;;;;;;;;;;18.90;50.30;;;;;;8335726;28;20050;-45
2022/10/02 00:53:07;;;;;;;;;;;18.90;50.30;;;;;;8335786;28;19979;-44
2022/10/02 00:57:13;;;;;;;;;;;18.80;50.30;;;;;;8335311;28;19921;-44
2022/10/02 01:01:29;;;;;;;;;;;18.90;50.30;;;;;;8335500;28;19925;-45
2022/10/02 01:05:31;;;;;;;;;;;18.80;50.30;;;;;;8310283;28;19917;-44
2022/10/02 01:09:32;;;;;;;;;;;18.90;50.30;;;;;;8335269;28;20354;-44
2022/10/02 01:13:32;;;;;;;;;;;18.90;50.30;;;;;;8335167;28;19924;-44
2022/10/02 01:17:33;;;;;;;;;;;18.90;50.30;;;;;;8334824;28;19917;-44
2022/10/02 01:21:41;;;;;;;;;;;18.90;50.30;;;;;;8334920;28;19925;-44
2022/10/02 01:25:42;;;;;;;;;;;18.80;50.30;;;;;;8335019;28;19922;-44
2022/10/02 01:29:43;;;;;;;;;;;18.90;50.40;;;;;;8334772;28;19920;-45
2022/10/02 01:33:44;;;;;;;;;;;18.90;50.40;;;;;;8334494;28;19918;-45
2022/10/02 01:37:44;;;;;;;;;;;18.80;50.30;;;;;;8334336;28;19921;-44
2022/10/02 01:41:45;;;;;;;;;;;18.90;50.40;;;;;;8332573;28;20374;-44
2022/10/02 01:46:11;;;;;;;;;;;18.90;50.40;;;;;;8334451;28;19956;-44
2022/10/02 01:50:19;;;;;;;;;;;18.80;50.30;;;;;;8310699;28;20397;-45
2022/10/02 01:54:37;;;;;;;;;;;18.80;50.30;;;;;;8333742;28;19921;-44
2022/10/02 01:58:44;;;;;;;;;;;18.80;50.30;;;;;;8333835;28;20015;-46
2022/10/02 02:03:03;;;;;;;;;;;18.80;50.30;;;;;;8333269;28;19982;-44
2022/10/02 02:07:12;;;;;;;;;;;18.80;50.40;;;;;;8333563;28;19917;-45
2022/10/02 02:11:15;;;;;;;;;;;18.80;50.40;;;;;;8333630;28;20313;-44
2022/10/02 02:15:26;;;;;;;;;;;18.80;50.40;;;;;;8333027;28;20390;-45
2022/10/02 02:19:30;;;;;;;;;;;18.80;50.40;;;;;;8333322;28;19929;-45
2022/10/02 02:23:32;;;;;;;;;;;18.80;50.40;;;;;;8332992;28;19968;-45
2022/10/02 02:27:36;;;;;;;;;;;18.80;50.40;;;;;;8332831;28;20385;-44
2022/10/02 02:31:40;;;;;;;;;;;18.80;50.40;;;;;;8333236;28;20289;-44
2022/10/02 02:35:42;;;;;;;;;;;18.90;50.40;;;;;;8332180;28;19918;-44
2022/10/02 02:39:44;;;;;;;;;;;18.80;50.40;;;;;;8332703;28;19975;-45
2022/10/02 02:43:48;;;;;;;;;;;18.80;50.40;;;;;;8332587;28;20289;-44
2022/10/02 02:47:54;;;;;;;;;;;18.80;50.40;;;;;;8332047;28;19923;-44
2022/10/02 02:51:55;;;;;;;;;;;18.80;50.40;;;;;;8332067;28;19981;-45
2022/10/02 02:55:58;;;;;;;;;;;18.80;50.40;;;;;;8332213;28;19917;-44
2022/10/02 03:00:01;;;;;;;;;;;18.80;50.40;;;;;;8331637;28;20040;-44
2022/10/02 03:04:01;;;;;;;;;;;18.80;50.40;;;;;;8331621;28;19917;-45
2022/10/02 03:08:03;;;;;;;;;;;18.80;50.40;;;;;;8331739;28;20053;-45
2022/10/02 03:12:03;;;;;;;;;;;18.80;50.40;;;;;;8331183;28;19963;-45
2022/10/02 03:16:04;;;;;;;;;;;18.80;50.40;;;;;;8331372;28;19917;-44
2022/10/02 03:20:28;;;;;;;;;;;18.80;50.50;;;;;;8331681;28;20362;-45
2022/10/02 03:24:31;;;;;;;;;;;18.90;50.50;;;;;;8278923;28;19944;-44
2022/10/02 03:28:35;;;;;;;;;;;18.80;50.40;;;;;;8321662;28;20330;-44
2022/10/02 03:32:37;;;;;;;;;;;18.80;50.50;;;;;;8330674;28;19917;-45
2022/10/02 03:36:37;;;;;;;;;;;18.80;50.50;;;;;;8331114;28;20290;-44
2022/10/02 03:40:38;;;;;;;;;;;18.90;50.50;;;;;;8330752;28;20110;-44
2022/10/02 03:44:38;;;;;;;;;;;18.90;50.50;;;;;;8330558;28;20282;-44
2022/10/02 03:48:40;;;;;;;;;;;18.90;50.50;;;;;;8330096;28;21275;-44
2022/10/02 03:52:41;;;;;;;;;;;18.90;50.60;;;;;;8330359;28;19913;-44
2022/10/02 03:56:45;;;;;;;;;;;18.90;50.50;;;;;;8330162;28;20305;-45
2022/10/02 04:00:49;;;;;;;;;;;18.90;50.60;;;;;;8330407;28;20078;-45
2022/10/02 04:04:53;;;;;;;;;;;18.90;50.60;;;;;;8329453;28;19917;-45
2022/10/02 04:09:00;;;;;;;;;;;18.90;50.60;;;;;;8329692;28;19917;-44
2022/10/02 04:13:03;;;;;;;;;;;18.90;50.60;;;;;;8329806;28;19932;-44
2022/10/02 04:17:22;;;;;;;;;;;18.90;50.60;;;;;;8330195;28;19923;-44
2022/10/02 04:21:28;;;;;;;;;;;18.90;50.60;;;;;;8329370;28;19932;-44
2022/10/02 04:25:31;;;;;;;;;;;18.90;50.70;;;;;;8330248;28;19967;-44
2022/10/02 04:29:40;;;;;;;;;;;18.90;50.60;;;;;;8329504;28;20301;-45
2022/10/02 04:33:41;;;;;;;;;;;18.90;50.60;;;;;;8329691;28;19917;-44
2022/10/02 04:37:44;;;;;;;;;;;18.90;50.70;;;;;;8329659;28;19925;-45
2022/10/02 04:41:52;;;;;;;;;;;18.90;50.70;;;;;;8329242;28;20024;-44
2022/10/02 04:46:10;;;;;;;;;;;18.90;50.70;;;;;;8329870;28;20015;-44
2022/10/02 04:50:30;;;;;;;;;;;18.90;50.70;;;;;;8329688;28;20357;-45
2022/10/02 04:54:49;;;;;;;;;;;18.90;50.70;;;;;;8329432;28;19917;-45
2022/10/02 04:59:10;;;;;;;;;;;18.90;50.70;;;;;;8329573;28;19971;-44
2022/10/02 05:03:21;;;;;;;;;;;18.90;50.60;;;;;;8297833;28;20294;-44
2022/10/02 05:07:41;;;;;;;;;;;18.90;50.70;;;;;;8329451;28;19924;-44
2022/10/02 05:11:59;;;;;;;;;;;18.90;50.60;;;;;;8328851;28;19917;-44
2022/10/02 05:16:18;;;;;;;;;;;18.90;50.60;;;;;;8332228;28;19913;-44
2022/10/02 05:20:27;;;;;;;;;;;18.90;50.70;;;;;;8335103;28;19928;-44
2022/10/02 05:24:38;;;;;;;;;;;18.90;51.20;;;;;;8334552;28;20503;-44
2022/10/02 05:28:52;;;;;;;;;;;18.90;50.60;;;;;;8334872;28;19928;-44
2022/10/02 05:33:11;;;;;;;;;;;18.90;50.60;;;;;;8334354;28;20001;-44
2022/10/02 05:37:20;;;;;;;;;;;18.90;50.60;;;;;;8334557;28;19929;-44
2022/10/02 05:41:23;;;;;;;;;;;18.90;50.70;;;;;;8335022;28;19952;-44
2022/10/02 05:45:26;;;;;;;;;;;18.90;50.70;;;;;;8333822;28;20267;-43
2022/10/02 05:49:31;;;;;;;;;;;18.90;50.60;;;;;;8334060;28;19924;-43
2022/10/02 05:53:40;;;;;;;;;;;18.90;50.60;;;;;;8333717;28;19917;-43
2022/10/02 05:57:46;;;;;;;;;;;18.90;50.60;;;;;;8333830;28;19924;-43
2022/10/02 06:01:48;;;;;;;;;;;18.90;50.60;;;;;;8334052;28;19983;-44
2022/10/02 06:05:57;;;;;;;;;;;18.90;50.60;;;;;;8333465;28;19917;-44
2022/10/02 06:10:01;;;;;;;;;;;19.00;50.70;;;;;;8333442;28;19917;-44
2022/10/02 06:14:09;;;;;;;;;;;19.00;50.60;;;;;;8333342;28;19917;-44
2022/10/02 06:18:12;;;;;;;;;;;19.00;50.70;;;;;;8332783;28;20023;-44
2022/10/02 06:22:18;;;;;;;;;;;19.00;50.60;;;;;;8333080;28;20332;-44
2022/10/02 06:26:27;;;;;;;;;;;19.00;50.60;;;;;;8332407;28;19917;-44
2022/10/02 06:30:29;;;;;;;;;;;19.00;50.60;;;;;;8332453;28;19917;-45
2022/10/02 06:34:29;;;;;;;;;;;19.00;50.60;;;;;;8332938;28;19948;-44
2022/10/02 06:38:35;;;;;;;;;;;19.00;50.60;;;;;;8332998;28;20361;-44
2022/10/02 06:42:35;;;;;;;;;;;19.00;50.60;;;;;;8332210;28;19929;-44
2022/10/02 06:46:56;;;;;;;;;;;19.00;51.20;;;;;;8332576;28;19913;-44
2022/10/02 06:51:08;;;;;;;;;;;19.00;50.60;;;;;;8331688;28;19924;-44
2022/10/02 06:55:31;;;;;;;;;;;19.00;50.60;;;;;;8332031;28;19925;-44
2022/10/02 06:59:54;;;;;;;;;;;19.00;50.60;;;;;;8331480;28;19987;-44
2022/10/02 07:03:54;;;;;;;;;;;19.00;50.60;;;;;;8332085;28;20400;-43
2022/10/02 07:08:01;;;;;;;;;;;19.00;50.60;;;;;;8331594;28;19917;-44
2022/10/02 07:12:22;;;;;;;;;;;19.00;50.60;;;;;;8330296;28;19913;-44
2022/10/02 07:16:41;;;;;;;;;;;19.00;50.60;;;;;;8331582;28;19924;-43
2022/10/02 07:21:10;;;;;;;;;;;19.00;50.60;;;;;;8330717;28;19925;-43
2022/10/02 07:25:29;;;;;;;;;;;19.00;50.60;;;;;;8262057;28;19967;-43
2022/10/02 07:29:34;;;;;;;;;;;19.10;50.60;;;;;;8316217;28;20007;-44
2022/10/02 07:33:34;;;;;;;;;;;19.00;50.60;;;;;;8330656;28;19917;-43
2022/10/02 07:37:48;;;;;;;;;;;19.10;50.60;;;;;;8330615;28;20016;-43
2022/10/02 07:42:05;;;;;;;;;;;19.10;50.60;;;;;;8330560;28;19964;-45
2022/10/02 07:46:08;;;;;;;;;;;19.10;50.60;;;;;;8329230;28;19917;-43
2022/10/02 07:50:08;;;;;;;;;;;19.10;50.60;;;;;;8330444;28;20378;-43
2022/10/02 07:54:11;;;;;;;;;;;19.10;50.60;;;;;;8329868;28;19921;-43
2022/10/02 07:58:18;;;;;;;;;;;19.10;50.60;;;;;;8330564;28;19921;-43
2022/10/02 08:02:25;;;;;;;;;;;19.10;50.60;;;;;;8330475;28;19925;-43
2022/10/02 08:06:26;;;;;;;;;;;19.10;51.20;;;;;;8329662;28;20312;-43
2022/10/02 08:10:30;;;;;;;;;;;19.10;50.60;;;;;;8330048;28;19921;-44
2022/10/02 08:14:37;;;;;;;;;;;19.10;50.60;;;;;;8330015;28;19913;-44
2022/10/02 08:18:41;;;;;;;;;;;19.10;50.70;;;;;;8329787;28;19962;-45
2022/10/02 08:22:44;;;;;;;;;;;19.10;50.70;;;;;;8330317;28;20258;-44
2022/10/02 08:26:45;;;;;;;;;;;19.20;50.70;;;;;;8329869;28;20345;-44
2022/10/02 08:30:45;;;;;;;;;;;19.20;50.70;;;;;;8330199;28;19971;-44
2022/10/02 08:34:46;;;;;;;;;;;19.20;50.70;;;;;;8329805;28;19920;-43
2022/10/02 08:38:48;;;;;;;;;;;19.20;50.70;;;;;;8329258;28;19921;-43
2022/10/02 08:42:55;;;;;;;;;;;19.20;51.30;;;;;;8330221;28;20004;-43
2022/10/02 08:47:14;;;;;;;;;;;19.20;50.70;;;;;;8329889;28;20304;-44
2022/10/02 08:51:29;;;;;;;;;;;19.20;50.80;;;;;;8332485;28;20318;-45
2022/10/02 08:55:46;;;;;;;;;;;19.20;50.80;;;;;;8336069;28;19924;-44
2022/10/02 09:00:06;;;;;;;;;;;19.20;50.80;;;;;;8335373;28;19948;-43
2022/10/02 09:04:18;;;;;;;;;;;19.20;50.80;;;;;;8335749;28;20298;-44
2022/10/02 09:08:38;;;;;;;;;;;19.20;50.80;;;;;;8335433;28;20390;-44
2022/10/02 09:12:57;;;;;;;;;;;19.30;50.80;;;;;;8335541;28;20509;-43
2022/10/02 09:17:09;;;;;;;;;;;19.20;50.70;;;;;;8335348;28;19917;-45
2022/10/02 09:21:28;;;;;;;;;;;19.30;50.80;;;;;;8334561;28;19925;-45
2022/10/02 09:25:37;;;;;;;;;;;19.30;50.80;;;;;;8334996;28;20313;-44
2022/10/02 09:29:56;;;;;;;;;;;19.30;50.90;;;;;;8334425;28;19913;-44
2022/10/02 09:33:59;;;;;;;;;;;19.30;50.80;;;;;;8334541;28;20036;-44
2022/10/02 09:38:19;;;;;;;;;;;19.30;50.90;;;;;;8334768;28;19921;-44
2022/10/02 09:42:32;;;;;;;;;;;19.30;51.00;;;;;;8334019;28;20299;-44
2022/10/02 09:46:58;;;;;;;;;;;19.30;51.00;;;;;;8334258;28;19924;-44
2022/10/02 09:51:25;;;;;;;;;;;19.30;51.00;;;;;;8333597;28;19917;-43
2022/10/02 09:55:28;;;;;;;;;;;19.30;51.00;;;;;;8310665;28;19924;-44
2022/10/02 09:59:47;;;;;;;;;;;19.40;51.00;;;;;;8333620;28;19921;-43
2022/10/02 10:03:51;;;;;;;;;;;19.40;51.10;;;;;;8327181;28;19924;-44
2022/10/02 10:08:07;;;;;;;;;;;19.40;51.10;;;;;;8333701;28;19959;-43
2022/10/02 10:12:22;;;;;;;;;;;19.40;51.10;;;;;;8333105;28;19964;-45
2022/10/02 10:16:33;;;;;;;;;;;19.40;51.10;;;;;;8333575;28;20370;-44
2022/10/02 10:20:35;;;;;;;;;;;19.40;51.10;;;;;;8332701;28;20015;-46
2022/10/02 10:24:48;;;;;;;;;;;19.50;51.30;;;;;;8333049;28;19917;-45
2022/10/02 10:28:54;;;;;;;;;;;19.50;51.20;;;;;;8332964;28;20043;-45
2022/10/02 10:33:23;;;;;;;;;;;19.50;51.20;;;;;;8332689;28;19913;-45
2022/10/02 10:42:01;;;;;;;;;;;19.50;51.30;;;;;;8327818;28;20448;-44
2022/10/02 10:46:20;;;;;;;;;;;19.50;51.30;;;;;;8332825;28;19925;-45
2022/10/02 10:50:34;;;;;;;;;;;19.50;51.30;;;;;;8332255;28;19982;-45
2022/10/02 10:54:47;;;;;;;;;;;19.50;51.30;;;;;;8331871;28;19917;-44
2022/10/02 10:58:48;;;;;;;;;;;19.60;51.40;;;;;;8332310;28;19967;-44
2022/10/02 11:02:53;;;;;;;;;;;19.60;51.30;;;;;;8331734;28;20129;-44
2022/10/02 11:07:02;;;;;;;;;;;19.60;51.30;;;;;;8331918;28;19924;-44
2022/10/02 11:11:02;;;;;;;;;;;19.60;51.30;;;;;;8331722;28;19960;-44
2022/10/02 11:15:06;;;;;;;;;;;19.60;51.30;;;;;;8330917;28;19924;-45
2022/10/02 11:19:06;;;;;;;;;;;19.60;51.30;;;;;;8331393;28;19919;-44
2022/10/02 11:23:06;;;;;;;;;;;19.60;51.30;;;;;;8331599;28;20278;-45
2022/10/02 11:27:26;;;;;;;;;;;19.70;51.40;;;;;;8330854;28;19917;-45
2022/10/02 11:31:35;;;;;;;;;;;19.70;51.50;;;;;;8331087;28;19960;-45
2022/10/02 11:35:47;;;;;;;;;;;19.70;51.40;;;;;;8330551;28;19936;-46
2022/10/02 11:39:58;;;;;;;;;;;19.80;51.40;;;;;;8331111;28;20432;-44
2022/10/02 11:44:33;;;;;;;;;;;19.80;51.40;;;;;;8331271;28;19914;-46
2022/10/02 11:48:34;;;;;;;;;;;19.80;51.30;;;;;;8256754;28;19921;-44
2022/10/02 11:52:51;;;;;;;;;;;19.80;51.30;;;;;;8330618;28;20377;-45
2022/10/02 11:57:11;;;;;;;;;;;19.80;51.40;;;;;;8330462;28;19925;-44
2022/10/02 12:01:21;;;;;;;;;;;19.90;51.40;;;;;;8330249;28;19932;-44
2022/10/02 12:05:41;;;;;;;;;;;19.90;51.50;;;;;;8330445;28;20286;-44
2022/10/02 12:09:53;;;;;;;;;;;19.90;51.40;;;;;;8330013;28;20378;-44
2022/10/02 12:14:17;;;;;;;;;;;19.90;51.40;;;;;;8330607;28;20373;-45
2022/10/02 12:18:22;;;;;;;;;;;19.90;51.40;;;;;;8321620;28;20064;-45
2022/10/02 12:26:58;;;;;;;;;;;20.00;51.40;;;;;;8334303;28;19940;-44
2022/10/02 12:31:25;;;;;;;;;;;20.00;51.40;;;;;;8336907;28;19987;-44
2022/10/02 12:35:31;;;;;;;;;;;20.00;51.40;;;;;;8333457;28;19917;-44
2022/10/02 12:39:38;;;;;;;;;;;20.00;51.40;;;;;;8335964;28;19959;-46
2022/10/02 12:43:55;;;;;;;;;;;20.00;51.40;;;;;;8336713;28;19921;-44
2022/10/02 12:48:05;;;;;;;;;;;20.00;51.40;;;;;;8335775;28;20400;-44
2022/10/02 12:52:27;;;;;;;;;;;20.00;51.40;;;;;;8336021;28;19996;-45
2022/10/02 12:56:44;;;;;;;;;;;20.00;51.40;;;;;;8335871;28;19928;-45
2022/10/02 13:01:03;;;;;;;;;;;20.10;51.30;;;;;;8335323;28;19925;-44
2022/10/02 13:05:11;;;;;;;;;;;20.00;51.30;;;;;;8320393;28;19928;-44
2022/10/02 13:09:27;;;;;;;;;;;20.10;51.30;;;;;;8335245;28;19913;-44
2022/10/02 13:13:30;;;;;;;;;;;20.10;51.30;;;;;;8335494;28;19928;-43
2022/10/02 13:17:30;;;;;;;;;;;20.10;51.30;;;;;;8335345;28;20074;-44
2022/10/02 13:21:40;;;;;;;;;;;20.10;51.30;;;;;;8334588;28;19925;-45
2022/10/02 13:25:47;;;;;;;;;;;20.10;51.30;;;;;;8335081;28;19924;-45
2022/10/02 13:29:54;;;;;;;;;;;20.10;51.30;;;;;;8334443;28;20374;-44
2022/10/02 13:33:54;;;;;;;;;;;20.10;51.30;;;;;;8335062;28;19914;-44
2022/10/02 13:38:02;;;;;;;;;;;20.10;51.20;;;;;;8334158;28;19928;-45
2022/10/02 13:42:21;;;;;;;;;;;20.10;51.20;;;;;;8334081;28;20302;-44
2022/10/02 13:46:32;;;;;;;;;;;20.20;51.30;;;;;;8331861;28;19925;-44
2022/10/02 13:50:41;;;;;;;;;;;20.20;51.20;;;;;;8315478;28;19925;-43
2022/10/02 13:54:51;;;;;;;;;;;20.20;51.30;;;;;;8306844;28;19925;-44
2022/10/02 13:59:11;;;;;;;;;;;20.20;51.40;;;;;;8311308;28;19924;-44
2022/10/02 14:03:19;;;;;;;;;;;20.20;51.30;;;;;;8326947;28;19929;-46
2022/10/02 14:07:44;;;;;;;;;;;20.20;51.20;;;;;;8329673;28;19918;-44
2022/10/02 14:11:52;;;;;;;;;;;20.20;51.20;;;;;;8330481;28;20381;-45
2022/10/02 14:15:59;;;;;;;;;;;20.20;51.20;;;;;;8330674;28;20385;-44
2022/10/02 14:20:19;;;;;;;;;;;20.20;51.20;;;;;;8330803;28;19932;-44
2022/10/02 14:28:57;;;;;;;;;;;20.20;51.10;;;;;;8337406;28;19924;-44
2022/10/02 14:33:04;;;;;;;;;;;20.30;51.20;;;;;;8332544;28;19999;-44
2022/10/02 14:37:24;;;;;;;;;;;20.20;51.20;;;;;;8333112;28;20290;-44
2022/10/02 14:41:37;;;;;;;;;;;20.30;51.20;;;;;;8331721;28;19925;-43
2022/10/02 14:45:56;;;;;;;;;;;20.30;51.20;;;;;;8332676;28;19917;-44
2022/10/02 14:50:15;;;;;;;;;;;20.30;51.10;;;;;;8332117;28;20453;-44
2022/10/02 14:54:18;;;;;;;;;;;20.30;51.10;;;;;;8330801;28;19931;-44
2022/10/02 14:58:48;;;;;;;;;;;20.30;51.10;;;;;;8332078;28;19956;-43
2022/10/02 15:02:51;;;;;;;;;;;20.30;51.10;;;;;;8318279;28;20451;-43
2022/10/02 15:06:57;;;;;;;;;;;20.20;51.00;;;;;;8331935;28;19921;-44
2022/10/02 15:10:58;;;;;;;;;;;20.20;51.10;;;;;;8331764;28;19932;-43
2022/10/02 15:14:59;;;;;;;;;;;20.20;51.00;;;;;;8331449;28;20393;-44
2022/10/02 15:19:08;;;;;;;;;;;20.20;50.90;;;;;;8331582;28;19921;-42
2022/10/02 15:23:11;;;;;;;;;;;20.30;51.00;;;;;;8331681;28;19947;-44
2022/10/02 15:27:38;;;;;;;;;;;20.30;51.00;;;;;;8330874;28;20402;-43
2022/10/02 15:31:43;;;;;;;;;;;20.30;51.00;;;;;;8331140;28;19920;-44
2022/10/02 15:35:53;;;;;;;;;;;20.20;50.90;;;;;;8330500;28;19929;-42
2022/10/02 15:40:16;;;;;;;;;;;20.30;50.90;;;;;;8331298;28;20386;-43
2022/10/02 15:44:19;;;;;;;;;;;20.30;51.00;;;;;;8330824;28;20405;-42
2022/10/02 15:48:26;;;;;;;;;;;20.20;50.80;;;;;;8330210;28;20301;-42
2022/10/02 15:52:32;;;;;;;;;;;20.20;50.80;;;;;;8330848;28;19921;-43
2022/10/02 15:56:51;;;;;;;;;;;20.20;50.80;;;;;;8330090;28;19917;-44
2022/10/02 16:01:01;;;;;;;;;;;20.20;50.70;;;;;;8329568;28;20301;-43
2022/10/02 16:05:07;;;;;;;;;;;20.20;50.70;;;;;;8330554;28;20059;-44
2022/10/02 16:09:07;;;;;;;;;;;20.20;50.70;;;;;;8328526;28;20296;-41
2022/10/02 16:13:16;;;;;;;;;;;20.20;50.70;;;;;;8330169;28;19924;-42
2022/10/02 16:17:17;;;;;;;;;;;20.20;50.70;;;;;;8330073;28;19963;-44
2022/10/02 16:21:17;;;;;;;;;;;20.20;50.70;;;;;;8328987;28;19925;-44
2022/10/02 16:25:26;;;;;;;;;;;20.20;50.60;;;;;;8330106;28;20337;-45
2022/10/02 16:29:46;;;;;;;;;;;20.20;50.60;;;;;;8329914;28;19918;-43
2022/10/02 16:34:01;;;;;;;;;;;20.20;50.60;;;;;;8329832;28;19952;-44
2022/10/02 16:38:23;;;;;;;;;;;20.20;50.70;;;;;;8329890;28;19921;-42
2022/10/02 16:42:41;;;;;;;;;;;20.20;50.60;;;;;;8329437;28;19925;-45
2022/10/02 16:46:59;;;;;;;;;;;20.20;50.60;;;;;;8329737;28;19972;-44
2022/10/02 16:51:07;;;;;;;;;;;20.20;50.70;;;;;;8329563;28;20004;-44
2022/10/02 16:55:24;;;;;;;;;;;20.20;50.70;;;;;;8330172;28;19921;-43
2022/10/02 16:59:31;;;;;;;;;;;20.20;50.50;;;;;;8328187;28;19921;-44
2022/10/02 17:03:33;;;;;;;;;;;20.20;51.00;;;;;;8329531;28;20428;-44
2022/10/02 17:07:36;;;;;;;;;;;20.20;50.50;;;;;;8329369;28;19955;-44
2022/10/02 17:11:45;;;;;;;;;;;20.20;50.60;;;;;;8331163;28;20501;-42
2022/10/02 17:16:08;;;;;;;;;;;20.20;50.50;;;;;;8335879;28;20305;-43
2022/10/02 17:20:11;;;;;;;;;;;20.20;50.50;;;;;;8335154;28;19983;-43
2022/10/02 17:24:21;;;;;;;;;;;20.20;50.50;;;;;;8334649;28;19924;-43
2022/10/02 17:28:25;;;;;;;;;;;20.20;50.40;;;;;;8334895;28;19945;-43
2022/10/02 17:32:35;;;;;;;;;;;20.20;50.50;;;;;;8334912;28;19917;-42
2022/10/02 17:36:43;;;;;;;;;;;20.20;50.40;;;;;;8334588;28;19921;-44
2022/10/02 17:41:17;;;;;;;;;;;20.20;50.40;;;;;;8335083;28;19976;-43
2022/10/02 17:45:26;;;;;;;;;;;20.20;50.50;;;;;;8279050;28;20003;-42
2022/10/02 17:49:45;;;;;;;;;;;20.20;50.40;;;;;;8326143;28;19917;-43
2022/10/02 17:58:35;;;;;;;;;;;20.20;50.40;;;;;;8340268;28;19924;-44
2022/10/02 18:02:38;;;;;;;;;;;20.20;50.50;;;;;;8333473;28;19929;-42
2022/10/02 18:06:58;;;;;;;;;;;20.20;50.50;;;;;;8333841;28;20023;-43
2022/10/02 18:11:05;;;;;;;;;;;20.20;50.40;;;;;;8333979;28;20008;-45
2022/10/02 18:15:15;;;;;;;;;;;20.20;50.40;;;;;;8333199;28;19924;-45
2022/10/02 18:19:35;;;;;;;;;;;20.20;50.40;;;;;;8333533;28;20289;-43
2022/10/02 18:23:54;;;;;;;;;;;20.20;50.40;;;;;;8331735;28;19928;-43
2022/10/02 18:28:10;;;;;;;;;;;20.10;50.40;;;;;;8333089;28;19967;-43
2022/10/02 18:32:18;;;;;;;;;;;20.20;50.40;;;;;;8333277;28;19921;-43
2022/10/02 18:36:42;;;;;;;;;;;20.20;50.40;;;;;;8332658;28;20382;-44
2022/10/02 18:41:03;;;;;;;;;;;20.20;50.40;;;;;;8294516;28;20382;-43
2022/10/02 18:45:17;;;;;;;;;;;20.20;50.40;;;;;;8326008;28;20051;-44
2022/10/02 18:49:38;;;;;;;;;;;20.20;50.40;;;;;;8338674;28;20016;-43
2022/10/02 18:53:47;;;;;;;;;;;20.20;50.40;;;;;;8331572;28;19913;-43
2022/10/02 18:58:08;;;;;;;;;;;20.20;50.40;;;;;;8332184;28;20301;-43
2022/10/02 19:02:08;;;;;;;;;;;20.20;50.40;;;;;;8331628;28;19929;-43
2022/10/02 19:06:12;;;;;;;;;;;20.20;50.40;;;;;;8331761;28;20074;-43
2022/10/02 19:10:35;;;;;;;;;;;20.20;50.40;;;;;;8313752;28;19918;-43
2022/10/02 19:14:40;;;;;;;;;;;20.20;50.40;;;;;;8319876;28;19921;-44
2022/10/02 19:18:40;;;;;;;;;;;20.20;50.40;;;;;;8331870;28;19928;-42
2022/10/02 19:22:41;;;;;;;;;;;20.20;50.40;;;;;;8331546;28;19953;-43
2022/10/02 19:31:22;;;;;;;;;;;20.20;50.30;;;;;;8341444;28;19924;-43
2022/10/02 19:35:27;;;;;;;;;;;20.20;50.30;;;;;;8337241;28;19918;-43
2022/10/02 19:39:29;;;;;;;;;;;20.20;50.30;;;;;;8330392;28;19925;-44
2022/10/02 19:43:32;;;;;;;;;;;20.20;50.30;;;;;;8331052;28;20314;-44
2022/10/02 19:47:40;;;;;;;;;;;20.20;50.30;;;;;;8330270;28;19917;-45
2022/10/02 19:51:42;;;;;;;;;;;20.20;50.30;;;;;;8331120;28;19919;-45
2022/10/02 19:55:45;;;;;;;;;;;20.20;50.30;;;;;;8330691;28;19928;-45
2022/10/02 19:59:48;;;;;;;;;;;20.20;50.40;;;;;;8329671;28;19921;-44
2022/10/02 20:03:51;;;;;;;;;;;20.20;50.50;;;;;;8330297;28;20004;-45
2022/10/02 20:08:12;;;;;;;;;;;20.20;50.40;;;;;;8330350;28;19917;-43
2022/10/02 20:12:15;;;;;;;;;;;20.10;50.50;;;;;;8329552;28;20385;-44
2022/10/02 20:20:35;;;;;;;;;;;20.10;50.50;;;;;;8332073;28;19932;-46
2022/10/02 20:24:42;;;;;;;;;;;20.20;50.50;;;;;;8329879;28;19924;-44
2022/10/02 20:28:46;;;;;;;;;;;20.20;50.60;;;;;;8329934;28;19917;-43
2022/10/02 20:32:47;;;;;;;;;;;20.20;50.60;;;;;;8329425;28;19918;-44
2022/10/02 20:36:53;;;;;;;;;;;20.20;50.50;;;;;;8329958;28;20055;-45
2022/10/02 20:40:56;;;;;;;;;;;20.10;50.50;;;;;;8329667;28;19995;-43
2022/10/02 20:44:56;;;;;;;;;;;20.10;50.60;;;;;;8329106;28;19917;-44
2022/10/02 20:49:15;;;;;;;;;;;20.10;50.60;;;;;;8335804;28;20301;-43
2022/10/02 20:53:27;;;;;;;;;;;20.10;50.60;;;;;;8336104;28;20279;-43
2022/10/02 20:57:49;;;;;;;;;;;20.10;50.60;;;;;;8335872;28;20004;-44
2022/10/02 21:02:10;;;;;;;;;;;20.20;50.70;;;;;;8335981;28;19929;-44
2022/10/02 21:06:21;;;;;;;;;;;20.20;50.70;;;;;;8335214;28;20011;-44
2022/10/02 21:10:40;;;;;;;;;;;20.10;50.60;;;;;;8335568;28;20289;-44
2022/10/02 21:14:42;;;;;;;;;;;20.10;50.60;;;;;;8334978;28;19975;-44
2022/10/02 21:19:11;;;;;;;;;;;20.20;50.60;;;;;;8335200;28;19967;-43
2022/10/02 21:23:12;;;;;;;;;;;20.10;50.60;;;;;;8281101;28;19921;-44
2022/10/02 21:27:19;;;;;;;;;;;20.20;50.60;;;;;;8334837;28;19913;-43
2022/10/02 21:31:29;;;;;;;;;;;20.10;50.60;;;;;;8334878;28;19921;-45
2022/10/02 21:35:45;;;;;;;;;;;20.10;50.60;;;;;;8334614;28;19918;-44
2022/10/02 21:40:01;;;;;;;;;;;20.10;50.60;;;;;;8334374;28;19917;-43
2022/10/02 21:44:24;;;;;;;;;;;20.10;50.60;;;;;;8334817;28;19917;-43
2022/10/02 21:48:25;;;;;;;;;;;20.20;50.60;;;;;;8333996;28;19980;-44
2022/10/02 21:52:44;;;;;;;;;;;20.10;50.60;;;;;;8334909;28;19913;-43
2022/10/02 21:56:44;;;;;;;;;;;20.10;50.60;;;;;;8333675;28;19964;-44
2022/10/02 22:00:54;;;;;;;;;;;20.20;50.60;;;;;;8334114;28;19971;-44
2022/10/02 22:05:06;;;;;;;;;;;20.10;50.60;;;;;;8332439;28;19917;-43
2022/10/02 22:09:16;;;;;;;;;;;20.20;50.60;;;;;;8333362;28;19923;-44
2022/10/02 22:13:17;;;;;;;;;;;20.10;50.60;;;;;;8333918;28;20340;-44
2022/10/02 22:17:36;;;;;;;;;;;20.20;50.70;;;;;;8333727;28;20004;-44
2022/10/02 22:21:43;;;;;;;;;;;20.20;50.60;;;;;;8333384;28;20416;-44
2022/10/02 22:25:46;;;;;;;;;;;20.10;50.60;;;;;;8333318;28;20325;-44
2022/10/02 22:29:51;;;;;;;;;;;20.10;50.60;;;;;;8332639;28;19923;-43
2022/10/02 22:33:53;;;;;;;;;;;20.10;50.60;;;;;;8332839;28;19964;-44
2022/10/02 22:38:03;;;;;;;;;;;20.10;50.60;;;;;;8333158;28;19921;-43
2022/10/02 22:42:17;;;;;;;;;;;20.10;50.60;;;;;;8332199;28;19972;-43
2022/10/02 22:46:21;;;;;;;;;;;20.20;50.70;;;;;;8332500;28;19918;-43
2022/10/02 22:50:47;;;;;;;;;;;20.10;50.60;;;;;;8332428;28;20358;-43
2022/10/02 22:55:03;;;;;;;;;;;20.10;50.60;;;;;;8331990;28;19917;-43
2022/10/02 22:59:08;;;;;;;;;;;20.10;50.60;;;;;;8332107;28;19913;-44
2022/10/02 23:03:08;;;;;;;;;;;20.10;50.60;;;;;;8331610;28;19925;-43
2022/10/02 23:07:13;;;;;;;;;;;20.10;50.60;;;;;;8331838;28;19940;-43
2022/10/02 23:11:19;;;;;;;;;;;20.10;50.60;;;;;;8331210;28;19948;-43
2022/10/02 23:15:34;;;;;;;;;;;20.10;50.60;;;;;;8331185;28;19921;-43
2022/10/02 23:19:40;;;;;;;;;;;20.10;50.60;;;;;;8331461;28;20020;-45
2022/10/02 23:23:59;;;;;;;;;;;20.10;50.60;;;;;;8331186;28;19929;-43
2022/10/02 23:28:06;;;;;;;;;;;20.10;50.60;;;;;;8331518;28;19924;-43
2022/10/02 23:32:12;;;;;;;;;;;20.10;50.60;;;;;;8331193;28;19917;-43
2022/10/02 23:36:23;;;;;;;;;;;20.10;50.60;;;;;;8330463;28;20433;-43
2022/10/02 23:41:35;;;;;;;;;;;20.10;50.60;;;;;;8330815;28;19921;-43
2022/10/02 23:44:52;;;;;;;;;;;20.10;50.60;;;;;;8330342;28;19924;-43
2022/10/02 23:48:53;;;;;;;;;;;20.10;50.60;;;;;;8330641;28;19920;-43
2022/10/02 23:53:12;;;;;;;;;;;20.10;50.60;;;;;;8330965;28;19917;-46
2022/10/02 23:57:18;;;;;;;;;;;20.10;50.60;;;;;;8330372;28;19917;-44
